Welcome to our new website - Welkom op onze vernieuwde website - Bienvenue sur notre nouveau site web - Willkommen auf unserer neuen Website
Check our progress frequently. Prüfen Sie unsere Fortschritte regelmäßig. Consultez notre progression fréquemment. Komt u straks nog eens terug

Bezoek ook deze websites:

Template documentation
and downloads

And another site



We konden geen weer-waarchuwingen ophalen. Ga rechtstreeks naar de Meteoalarm site : www.meteoalarm.eu en controleer daar .

METAR rapporten vliegvelden

   
EHDL - Deelen Rnlafb, Netherlands
Afstand tot: ZW 55 km
Gewijzigd: 19-05-2024 09:25
Bewolking  
Bewolking  
   Wind: varieert 3.7 km/h
Wind: varieert 3.7 km/h
Temperatuur: 15°C
Dauwpunt: 13°C
Vochtigheid: 88%
Barometer: 1011 hPa
Bewolking: Bewolking
Zicht: meer dan 10 km
Bewolking: Bewolking 11000 ft
EHDL 190725Z AUTO VRB02KT 9999 OVC110 15/13 Q1011 BLU
EHLE - Lelystad, Netherlands
Afstand tot: W 64 km
Gewijzigd: 19-05-2024 09:25
Helder  
Helder  
   Wind: NNO 11.1 km/h
Wind: NNO 11.1 km/h
Temperatuur: 18°C
Dauwpunt: 13°C
Vochtigheid: 73%
Barometer: 1011 hPa
Bewolking: Helder
Zicht: meer dan 10 km
Bewolking: Helder
EHLE 190725Z AUTO 02006KT 9999 NCD 18/13 Q1011 NOSIG
ETWM - Meppen, Germany
Afstand tot: ONO 69 km
Gewijzigd: 19-05-2024 09:20
  
  
   Wind: NNO 7.4 km/h
Wind: NNO 7.4 km/h
Temperatuur: 16°C
Dauwpunt: 12°C
Vochtigheid: 77%
Barometer: 1010 hPa
ETWM 190720Z AUTO 03004KT //// // ////// 16/12 Q1010 ///
EHGG - Groningen/Eelde, Netherlands
Afstand tot: N 79 km
Gewijzigd: 19-05-2024 09:25
Gedeeltelijk bewolkt  
Gedeeltelijk bewolkt  
   Wind: Noorden 9.3 km/h
Wind: Noorden 9.3 km/h
Temperatuur: 18°C
Dauwpunt: 12°C
Vochtigheid: 68%
Barometer: 1011 hPa
Bewolking: Gedeeltelijk bewolkt
Zicht: meer dan 10 km
Bewolking: Gedeeltelijk bewolkt
EHGG 190725Z AUTO 35005KT 310V040 9999 NSC 18/12 Q1011 NOSIG
EDDG - Muenster/Osnabru, Germany
Afstand tot: OZO 90 km
Gewijzigd: 19-05-2024 09:20
Helder  
Helder  
   Wind: varieert 1.9 km/h
Wind: varieert 1.9 km/h
Temperatuur: 17°C
Dauwpunt: 12°C
Vochtigheid: 73%
Barometer: 1010 hPa
Zicht: meer dan 10 km
Bewolking: Helder
EDDG 190720Z AUTO VRB01KT CAVOK 17/12 Q1010 NOSIG
EDLV - Niederrhein, Germany
Afstand tot: ZZW 92 km
Gewijzigd: 19-05-2024 09:20
Nevel, Bewolking  
Nevel, Bewolking  
   Wind: WZW 9.3 km/h
Wind: WZW 9.3 km/h
Temperatuur: 15°C
Dauwpunt: 14°C
Vochtigheid: 94%
Barometer: 1011 hPa
Bewolking: Bewolking
Zicht: 4 km
Bewolking: Bewolking 700 ft
EDLV 190720Z 25005KT 3500 BR OVC007 15/14 Q1011

Script ontwikkeld door  Saratoga-weather.org Aangepast voor de template door  Weerstation Leuven

U vindt ons ook hier:

Het Weer Aktueel

European Weather Network

Weather Underground

Benelux Weer Netwerk

Apparatuur in gebruik:

Weerstation
Davis VP2

Weerprogramma
Meteobridge

Weercomputer
Meteobridge Pro+

Webleverancier
vip.nl

Davis VP2

Meteobridge

Meteobridge Pro+

vip.nl